createdAt,value
2024-05-09T00:00:01.312Z,0
2024-05-09T00:01:01.458Z,0
2024-05-09T00:02:03.182Z,0
2024-05-09T00:03:01.629Z,0
2024-05-09T00:04:01.828Z,0
2024-05-09T00:05:03.663Z,0
2024-05-09T00:06:03.756Z,0
2024-05-09T00:07:03.600Z,0
2024-05-09T00:08:02.198Z,0
2024-05-09T00:09:03.834Z,0
2024-05-09T00:10:04.147Z,0
2024-05-09T00:11:03.147Z,0
2024-05-09T00:12:01.763Z,0
2024-05-09T00:13:01.597Z,0
2024-05-09T00:14:01.737Z,0
2024-05-09T00:15:01.791Z,0
2024-05-09T00:16:02.192Z,0
2024-05-09T00:17:02.100Z,0
2024-05-09T00:18:04.284Z,0
2024-05-09T00:19:02.326Z,0
2024-05-09T00:20:01.464Z,0
2024-05-09T00:21:03.256Z,0
2024-05-09T00:22:01.539Z,0
2024-05-09T00:23:01.663Z,0
2024-05-09T00:24:01.702Z,0
2024-05-09T00:25:03.416Z,0
2024-05-09T00:26:01.987Z,0
2024-05-09T00:27:02.024Z,0
2024-05-09T00:28:02.074Z,0
2024-05-09T00:29:02.349Z,0
2024-05-09T00:30:01.298Z,0
2024-05-09T00:31:03.026Z,0
2024-05-09T00:32:03.352Z,0
2024-05-09T00:33:04.028Z,0
2024-05-09T00:34:01.993Z,0
2024-05-09T00:35:01.893Z,0
2024-05-09T00:36:01.960Z,0
2024-05-09T00:37:03.651Z,0
2024-05-09T00:38:02.373Z,0
2024-05-09T00:39:03.865Z,0
2024-05-09T00:40:01.345Z,0
2024-05-09T00:41:03.110Z,0
2024-05-09T00:42:01.564Z,0
2024-05-09T00:43:01.649Z,0
2024-05-09T00:44:01.810Z,0
2024-05-09T00:45:01.847Z,0
2024-05-09T00:46:03.536Z,0
2024-05-09T00:47:02.092Z,0
2024-05-09T00:48:02.435Z,0
2024-05-09T00:49:03.992Z,0
2024-05-09T00:50:01.496Z,0
2024-05-09T00:51:01.461Z,0
2024-05-09T00:52:03.190Z,0
2024-05-09T00:53:01.649Z,0
2024-05-09T00:54:03.369Z,0
2024-05-09T00:55:03.437Z,0
2024-05-09T00:56:01.965Z,0
2024-05-09T00:57:03.642Z,0
2024-05-09T00:58:02.118Z,0
2024-05-09T00:59:03.919Z,0
2024-05-09T01:00:01.306Z,0
2024-05-09T01:01:01.449Z,0
2024-05-09T01:02:01.678Z,0
2024-05-09T01:03:01.934Z,0
2024-05-09T01:04:01.808Z,0
2024-05-09T01:05:02.026Z,0
2024-05-09T01:06:03.639Z,0
2024-05-09T01:07:02.012Z,0
2024-05-09T01:08:03.796Z,0
2024-05-09T01:09:02.207Z,0
2024-05-09T01:10:01.378Z,0
2024-05-09T01:11:01.672Z,0
2024-05-09T01:12:01.687Z,0
2024-05-09T01:13:01.624Z,0
2024-05-09T01:14:03.373Z,0
2024-05-09T01:15:01.849Z,0
2024-05-09T01:16:01.912Z,0
2024-05-09T01:17:02.048Z,0
2024-05-09T01:18:02.443Z,0
2024-05-09T01:19:03.949Z,0
2024-05-09T01:20:01.379Z,0
2024-05-09T01:21:01.463Z,0
2024-05-09T01:22:03.172Z,0
2024-05-09T01:23:03.286Z,0
2024-05-09T01:24:03.349Z,0
2024-05-09T01:25:01.814Z,0
2024-05-09T01:26:03.594Z,0
2024-05-09T01:27:02.023Z,0
2024-05-09T01:28:02.160Z,0
2024-05-09T01:29:02.253Z,0
2024-05-09T01:30:01.302Z,0
2024-05-09T01:31:01.399Z,0
2024-05-09T01:32:03.254Z,0
2024-05-09T01:33:02.021Z,0
2024-05-09T01:34:01.791Z,0
2024-05-09T01:35:01.871Z,0
2024-05-09T01:36:03.573Z,0
2024-05-09T01:37:02.031Z,0
2024-05-09T01:38:02.394Z,0
2024-05-09T01:39:03.870Z,0
2024-05-09T01:40:03.661Z,0
2024-05-09T01:41:01.498Z,0
2024-05-09T01:42:01.569Z,0
2024-05-09T01:43:01.645Z,0
2024-05-09T01:44:03.407Z,0
2024-05-09T01:45:03.465Z,0
2024-05-09T01:46:03.576Z,0
2024-05-09T01:47:03.746Z,0
2024-05-09T01:48:02.944Z,0
2024-05-09T01:49:02.370Z,0
2024-05-09T01:50:01.566Z,0
2024-05-09T01:51:03.143Z,0
2024-05-09T01:52:01.552Z,0
2024-05-09T01:53:03.337Z,0
2024-05-09T01:54:03.389Z,0
2024-05-09T01:55:05.676Z,0
2024-05-09T01:56:03.618Z,0
2024-05-09T01:57:02.063Z,0
2024-05-09T01:58:02.163Z,0
2024-05-09T01:59:02.337Z,0
2024-05-09T02:00:01.352Z,0
2024-05-09T02:01:01.490Z,0
2024-05-09T02:02:01.796Z,0
2024-05-09T02:03:03.472Z,0
2024-05-09T02:04:03.632Z,0
2024-05-09T02:05:02.033Z,0
2024-05-09T02:06:02.107Z,0
2024-05-09T02:07:03.710Z,0
2024-05-09T02:08:02.238Z,0
2024-05-09T02:09:02.262Z,0
2024-05-09T02:10:01.379Z,0
2024-05-09T02:11:01.580Z,0
2024-05-09T02:12:01.658Z,0
2024-05-09T02:13:01.654Z,0
2024-05-09T02:14:01.804Z,0
2024-05-09T02:15:01.874Z,0
2024-05-09T02:16:03.579Z,0
2024-05-09T02:17:02.088Z,0
2024-05-09T02:18:04.165Z,0
2024-05-09T02:19:02.420Z,0
2024-05-09T02:20:01.472Z,0
2024-05-09T02:21:03.350Z,0
2024-05-09T02:22:03.207Z,0
2024-05-09T02:23:03.391Z,0
2024-05-09T02:24:03.355Z,0
2024-05-09T02:25:03.489Z,0
2024-05-09T02:26:03.642Z,0
2024-05-09T02:27:02.065Z,0
2024-05-09T02:28:02.206Z,0
2024-05-09T02:29:02.341Z,0
2024-05-09T02:30:01.350Z,0
2024-05-09T02:31:01.460Z,0
2024-05-09T02:32:01.631Z,0
2024-05-09T02:33:03.443Z,0
2024-05-09T02:34:02.074Z,0
2024-05-09T02:35:03.618Z,0
2024-05-09T02:36:01.968Z,0
2024-05-09T02:37:03.687Z,0
2024-05-09T02:38:03.901Z,0
2024-05-09T02:39:02.247Z,0
2024-05-09T02:40:03.480Z,0
2024-05-09T02:41:01.510Z,0
2024-05-09T02:42:01.547Z,0
2024-05-09T02:43:03.314Z,0
2024-05-09T02:44:01.784Z,0
2024-05-09T02:45:03.490Z,0
2024-05-09T02:46:03.580Z,0
2024-05-09T02:47:02.078Z,0
2024-05-09T02:48:04.142Z,0
2024-05-09T02:49:02.376Z,0
2024-05-09T02:50:03.633Z,0
2024-05-09T02:51:03.256Z,0
2024-05-09T02:52:03.193Z,0
2024-05-09T02:53:01.669Z,0
2024-05-09T02:54:01.746Z,0
2024-05-09T02:55:01.858Z,0
2024-05-09T02:56:03.597Z,0
2024-05-09T02:57:03.685Z,0
2024-05-09T02:58:03.791Z,0
2024-05-09T02:59:02.274Z,0
2024-05-09T03:00:01.311Z,0
2024-05-09T03:01:01.469Z,0
2024-05-09T03:02:03.277Z,0
2024-05-09T03:03:01.862Z,0
2024-05-09T03:04:01.880Z,0
2024-05-09T03:05:01.873Z,0
2024-05-09T03:06:03.543Z,0
2024-05-09T03:07:02.063Z,0
2024-05-09T03:08:02.239Z,0
2024-05-09T03:09:03.881Z,0
2024-05-09T03:10:01.297Z,0
2024-05-09T03:11:03.084Z,0
2024-05-09T03:12:01.626Z,0
2024-05-09T03:13:03.316Z,0
2024-05-09T03:14:01.773Z,0
2024-05-09T03:15:03.486Z,0
2024-05-09T03:16:01.907Z,0
2024-05-09T03:17:03.827Z,0
2024-05-09T03:18:02.492Z,0
2024-05-09T03:19:02.443Z,0
2024-05-09T03:20:01.384Z,0
2024-05-09T03:21:01.526Z,0
2024-05-09T03:22:01.560Z,0
2024-05-09T03:23:01.748Z,0
2024-05-09T03:24:01.764Z,0
2024-05-09T03:25:01.866Z,0
2024-05-09T03:26:01.988Z,0
2024-05-09T03:27:02.030Z,0
2024-05-09T03:28:02.160Z,0
2024-05-09T03:29:02.979Z,0
2024-05-09T03:30:01.374Z,0
2024-05-09T03:31:01.451Z,0
2024-05-09T03:32:03.349Z,0
2024-05-09T03:33:03.480Z,0
2024-05-09T03:34:01.968Z,0
2024-05-09T03:35:03.564Z,0
2024-05-09T03:36:04.591Z,0
2024-05-09T03:37:02.120Z,0
2024-05-09T03:38:03.993Z,0
2024-05-09T03:39:02.920Z,0
2024-05-09T03:40:03.088Z,0
2024-05-09T03:41:01.540Z,0
2024-05-09T03:42:01.630Z,0
2024-05-09T03:43:03.344Z,0
2024-05-09T03:44:01.881Z,0
2024-05-09T03:45:01.919Z,0
2024-05-09T03:46:03.658Z,0
2024-05-09T03:47:02.233Z,0
2024-05-09T03:49:03.077Z,0
2024-05-09T03:50:01.505Z,0
2024-05-09T03:51:01.579Z,0
2024-05-09T03:52:01.726Z,0
2024-05-09T03:53:03.537Z,0
2024-05-09T03:54:03.479Z,0
2024-05-09T03:55:03.615Z,0
2024-05-09T03:56:02.110Z,0
2024-05-09T03:57:02.200Z,0
2024-05-09T03:58:01.307Z,0
2024-05-09T03:59:01.400Z,0
2024-05-09T04:00:01.490Z,0
2024-05-09T04:01:01.740Z,0
2024-05-09T04:02:01.780Z,0
2024-05-09T04:03:02.201Z,0
2024-05-09T04:04:01.917Z,0
2024-05-09T04:05:03.754Z,0
2024-05-09T04:06:03.828Z,0
2024-05-09T04:07:02.229Z,0
2024-05-09T04:08:01.575Z,0
2024-05-09T04:09:03.064Z,0
2024-05-09T04:10:01.509Z,0
2024-05-09T04:11:01.778Z,0
2024-05-09T04:12:01.922Z,0
2024-05-09T04:13:02.021Z,0
2024-05-09T04:14:02.031Z,0
2024-05-09T04:15:03.637Z,0
2024-05-09T04:16:03.748Z,0
2024-05-09T04:17:03.878Z,0
2024-05-09T04:18:02.332Z,0
2024-05-09T04:19:03.120Z,0
2024-05-09T04:20:03.255Z,0
2024-05-09T04:21:01.783Z,0
2024-05-09T04:22:03.355Z,0
2024-05-09T04:23:03.561Z,0
2024-05-09T04:24:01.923Z,0
2024-05-09T04:25:02.021Z,0
2024-05-09T04:26:02.196Z,0
2024-05-09T04:27:03.872Z,0
2024-05-09T04:28:02.973Z,0
2024-05-09T04:29:03.135Z,0
2024-05-09T04:30:01.506Z,0
2024-05-09T04:31:01.591Z,0
2024-05-09T04:32:01.743Z,0
2024-05-09T04:33:02.015Z,0
2024-05-09T04:34:04.012Z,0
2024-05-09T04:35:03.818Z,0
2024-05-09T04:36:02.114Z,0
2024-05-09T04:37:02.244Z,0
2024-05-09T04:38:02.991Z,0
2024-05-09T04:39:01.415Z,0
2024-05-09T04:40:01.553Z,0
2024-05-09T04:41:03.348Z,0
2024-05-09T04:42:03.350Z,0
2024-05-09T04:43:01.842Z,0
2024-05-09T04:44:02.069Z,0
2024-05-09T04:45:02.018Z,0
2024-05-09T04:46:02.155Z,0
2024-05-09T04:47:03.920Z,0
2024-05-09T04:48:03.493Z,0
2024-05-09T04:49:03.178Z,0
2024-05-09T04:50:03.599Z,0
2024-05-09T04:51:03.508Z,0
2024-05-09T04:52:01.726Z,0
2024-05-09T04:53:01.885Z,0.86
2024-05-09T04:54:01.924Z,1.2
2024-05-09T04:55:02.068Z,0.96
2024-05-09T04:56:03.798Z,0.62
2024-05-09T04:57:03.895Z,0
2024-05-09T04:58:01.356Z,0
2024-05-09T04:59:01.532Z,0
2024-05-09T05:00:01.663Z,0
2024-05-09T05:01:01.707Z,0
2024-05-09T05:02:03.569Z,0
2024-05-09T05:03:02.071Z,0
2024-05-09T05:04:02.160Z,0
2024-05-09T05:05:02.273Z,0
2024-05-09T05:06:02.395Z,0
2024-05-09T05:07:03.166Z,0
2024-05-09T05:08:01.514Z,0
2024-05-09T05:09:01.499Z,0
2024-05-09T05:10:04.501Z,0
2024-05-09T05:11:01.830Z,0
2024-05-09T05:12:01.944Z,0
2024-05-09T05:13:01.904Z,0
2024-05-09T05:14:03.721Z,0
2024-05-09T05:15:02.089Z,0
2024-05-09T05:16:02.214Z,0
2024-05-09T05:17:03.034Z,0
2024-05-09T05:18:01.553Z,0
2024-05-09T05:19:03.311Z,0
2024-05-09T05:20:03.597Z,0
2024-05-09T05:21:03.396Z,0
2024-05-09T05:22:01.856Z,0
2024-05-09T05:23:02.033Z,0
2024-05-09T05:24:03.648Z,0
2024-05-09T05:25:02.142Z,0
2024-05-09T05:26:02.303Z,0
2024-05-09T05:27:01.314Z,0
2024-05-09T05:28:01.427Z,0
2024-05-09T05:29:01.584Z,0
2024-05-09T05:30:01.685Z,0
2024-05-09T05:31:01.735Z,0
2024-05-09T05:32:01.904Z,0
2024-05-09T05:33:03.621Z,0
2024-05-09T05:34:03.709Z,0
2024-05-09T05:35:03.825Z,0
2024-05-09T05:36:02.246Z,0
2024-05-09T05:37:03.134Z,0
2024-05-09T05:38:01.622Z,0
2024-05-09T05:39:03.208Z,0
2024-05-09T05:40:01.663Z,0
2024-05-09T05:41:03.431Z,0
2024-05-09T05:42:01.861Z,0.86
2024-05-09T05:43:03.584Z,1.01
2024-05-09T05:44:03.781Z,1.06
2024-05-09T05:45:02.189Z,0.82
2024-05-09T05:46:01.251Z,0.62
2024-05-09T05:47:01.493Z,0.62
2024-05-09T05:48:01.774Z,0.43
2024-05-09T05:49:01.680Z,0
2024-05-09T05:50:01.718Z,0
2024-05-09T05:51:04.700Z,0
2024-05-09T05:52:03.602Z,0
2024-05-09T05:53:03.777Z,0
2024-05-09T05:54:03.732Z,0
2024-05-09T05:55:03.872Z,0
2024-05-09T05:56:01.532Z,0
2024-05-09T05:57:03.082Z,0
2024-05-09T05:58:01.558Z,0
2024-05-09T05:59:03.286Z,0
2024-05-09T06:00:01.790Z,0
2024-05-09T06:01:01.846Z,0
2024-05-09T06:02:01.958Z,0
2024-05-09T06:03:03.787Z,0
2024-05-09T06:04:03.846Z,0
2024-05-09T06:05:02.338Z,0
2024-05-09T06:06:01.368Z,0
2024-05-09T06:07:01.452Z,0
2024-05-09T06:08:03.283Z,0
2024-05-09T06:09:03.284Z,0
2024-05-09T06:10:05.238Z,0
2024-05-09T06:11:02.000Z,0
2024-05-09T06:12:03.735Z,0
2024-05-09T06:13:03.646Z,0
2024-05-09T06:14:02.232Z,0
2024-05-09T06:15:02.291Z,0
2024-05-09T06:16:03.052Z,0
2024-05-09T06:17:03.073Z,0
2024-05-09T06:18:03.346Z,0
2024-05-09T06:19:03.355Z,0
2024-05-09T06:20:01.899Z,0
2024-05-09T06:21:02.006Z,0
2024-05-09T06:22:03.627Z,0
2024-05-09T06:23:02.346Z,0.05
2024-05-09T06:24:06.160Z,1.15
2024-05-09T06:25:01.252Z,0.91
2024-05-09T06:26:03.023Z,0.72
2024-05-09T06:27:01.474Z,0.77
2024-05-09T06:28:01.699Z,0.53
2024-05-09T06:29:01.730Z,0
2024-05-09T06:30:03.869Z,0
2024-05-09T06:31:01.895Z,0
2024-05-09T06:32:03.757Z,0
2024-05-09T06:33:02.243Z,0
2024-05-09T06:34:04.041Z,0
2024-05-09T06:35:01.309Z,0
2024-05-09T06:36:03.059Z,0
2024-05-09T06:37:01.504Z,0
2024-05-09T06:38:02.013Z,0
2024-05-09T06:39:01.665Z,0
2024-05-09T06:40:01.764Z,0
2024-05-09T06:41:01.983Z,0
2024-05-09T06:42:02.019Z,0
2024-05-09T06:43:02.096Z,0
2024-05-09T06:44:03.876Z,0
2024-05-09T06:45:01.299Z,0
2024-05-09T06:46:01.406Z,0
2024-05-09T06:47:01.579Z,0
2024-05-09T06:48:01.738Z,0
2024-05-09T06:49:01.941Z,0
2024-05-09T06:50:01.794Z,0
2024-05-09T06:51:03.581Z,0
2024-05-09T06:52:01.970Z,0
2024-05-09T06:53:02.373Z,0
2024-05-09T06:54:02.168Z,0
2024-05-09T06:55:02.934Z,0
2024-05-09T06:56:01.460Z,0
2024-05-09T06:57:01.500Z,0
2024-05-09T06:58:01.635Z,0
2024-05-09T06:59:03.354Z,0
2024-05-09T07:00:01.808Z,0
2024-05-09T07:01:01.980Z,0
2024-05-09T07:02:03.694Z,0
2024-05-09T07:03:05.470Z,0
2024-05-09T07:04:04.235Z,0
2024-05-09T07:05:03.030Z,0
2024-05-09T07:06:01.518Z,0
2024-05-09T07:07:01.503Z,0
2024-05-09T07:08:03.397Z,0
2024-05-09T07:09:01.736Z,0
2024-05-09T07:10:01.845Z,0
2024-05-09T07:11:03.630Z,0
2024-05-09T07:12:02.152Z,0
2024-05-09T07:13:02.121Z,0
2024-05-09T07:14:02.326Z,0
2024-05-09T07:15:01.352Z,0
2024-05-09T07:16:03.117Z,0
2024-05-09T07:17:01.619Z,0
2024-05-09T07:18:03.582Z,0
2024-05-09T07:19:01.868Z,0
2024-05-09T07:20:01.899Z,0
2024-05-09T07:21:03.669Z,0
2024-05-09T07:22:02.070Z,0
2024-05-09T07:23:02.267Z,0
2024-05-09T07:24:03.898Z,0
2024-05-09T07:25:01.370Z,0
2024-05-09T07:26:01.494Z,0.34
2024-05-09T07:27:01.556Z,0
2024-05-09T07:28:01.621Z,0
2024-05-09T07:29:01.808Z,0
2024-05-09T07:30:02.211Z,0
2024-05-09T07:31:03.612Z,0
2024-05-09T07:32:02.243Z,0
2024-05-09T07:33:03.035Z,0
2024-05-09T07:34:01.409Z,0
2024-05-09T07:35:03.079Z,0
2024-05-09T07:36:03.163Z,0
2024-05-09T07:37:01.576Z,0
2024-05-09T07:38:01.720Z,0
2024-05-09T07:39:01.795Z,0
2024-05-09T07:40:01.898Z,0
2024-05-09T07:41:02.116Z,0
2024-05-09T07:42:02.121Z,0
2024-05-09T07:43:02.216Z,0
2024-05-09T07:44:01.401Z,0
2024-05-09T07:45:20.963Z,0
2024-05-09T07:46:51.896Z,0
2024-05-09T07:50:53.277Z,0
2024-05-09T07:51:51.318Z,0
2024-05-09T07:53:26.754Z,0
2024-05-09T07:53:36.116Z,0
2024-05-09T07:54:03.647Z,0
2024-05-09T07:55:01.698Z,0
2024-05-09T07:56:03.447Z,0
2024-05-09T07:57:01.864Z,0
2024-05-09T07:58:01.928Z,0
2024-05-09T07:59:03.491Z,0
2024-05-09T08:00:04.503Z,0
2024-05-09T08:01:02.270Z,0
2024-05-09T08:02:02.489Z,0
2024-05-09T08:03:02.303Z,0
2024-05-09T08:04:03.175Z,0
2024-05-09T08:05:01.745Z,0
2024-05-09T08:06:03.188Z,0.48
2024-05-09T08:07:03.335Z,0.34
2024-05-09T08:08:03.387Z,0.43
2024-05-09T08:09:08.042Z,0.58
2024-05-09T08:10:05.233Z,0
2024-05-09T08:11:03.771Z,0.96
2024-05-09T08:12:02.150Z,0.14
2024-05-09T08:14:03.024Z,0
2024-05-09T08:15:01.487Z,0.43
2024-05-09T08:16:03.385Z,1.1
2024-05-09T08:17:01.719Z,0.91
2024-05-09T08:18:03.585Z,0
2024-05-09T08:19:01.988Z,0
2024-05-09T08:20:05.076Z,0
2024-05-09T08:21:03.703Z,0.34
2024-05-09T08:22:03.811Z,0
2024-05-09T08:23:01.264Z,0
2024-05-09T08:24:03.002Z,0
2024-05-09T08:25:01.584Z,0
2024-05-09T08:26:01.604Z,0
2024-05-09T08:27:01.677Z,0
2024-05-09T08:28:01.858Z,0
2024-05-09T08:29:01.890Z,0.14
2024-05-09T08:30:03.994Z,0
2024-05-09T08:31:06.066Z,1.63
2024-05-09T08:32:02.210Z,0.19
2024-05-09T08:33:01.364Z,0.43
2024-05-09T08:34:03.199Z,0
2024-05-09T08:35:03.145Z,0
2024-05-09T08:36:03.292Z,0
2024-05-09T08:37:12.845Z,0
2024-05-09T08:38:03.682Z,0
2024-05-09T08:39:01.950Z,0.62
2024-05-09T08:40:02.061Z,0.34
2024-05-09T08:41:02.117Z,0
2024-05-09T08:42:03.868Z,0
2024-05-09T08:43:01.428Z,0
2024-05-09T08:44:01.477Z,0
2024-05-09T08:45:03.214Z,0
2024-05-09T08:46:03.335Z,0
2024-05-09T08:47:03.439Z,0
2024-05-09T08:48:03.539Z,0
2024-05-09T08:49:02.240Z,0.58
2024-05-09T08:50:02.106Z,0
2024-05-09T08:51:02.179Z,0
2024-05-09T08:52:04.041Z,0
2024-05-09T08:53:03.031Z,0
2024-05-09T08:54:01.446Z,0
2024-05-09T08:55:03.315Z,0
2024-05-09T08:56:01.659Z,0
2024-05-09T08:57:03.369Z,0
2024-05-09T08:58:03.683Z,0.14
2024-05-09T08:59:01.926Z,1.44
2024-05-09T09:00:06.252Z,1.87
2024-05-09T09:01:02.203Z,1.39
2024-05-09T09:02:02.444Z,0.62
2024-05-09T09:03:03.030Z,1.3
2024-05-09T09:04:01.726Z,0.82
2024-05-09T09:05:03.295Z,1.68
2024-05-09T09:06:01.694Z,1.39
2024-05-09T09:07:03.714Z,1.58
2024-05-09T09:08:03.475Z,1.63
2024-05-09T09:09:03.571Z,1.54
2024-05-09T09:10:02.063Z,0.96
2024-05-09T09:11:03.785Z,0
2024-05-09T09:12:03.951Z,0
2024-05-09T09:13:03.161Z,0
2024-05-09T09:14:01.473Z,1.2
2024-05-09T09:15:01.563Z,0.86
2024-05-09T09:16:01.791Z,0.82
2024-05-09T09:17:03.384Z,0
2024-05-09T09:18:03.717Z,0
2024-05-09T09:19:03.788Z,0.1
2024-05-09T09:20:02.243Z,1.25
2024-05-09T09:21:03.799Z,0.91
2024-05-09T09:23:02.999Z,0.77
2024-05-09T09:24:01.455Z,1.34
2024-05-09T09:25:01.660Z,0.38
2024-05-09T09:26:01.817Z,1.06
2024-05-09T09:27:03.396Z,0.62
2024-05-09T09:28:01.899Z,1.97
2024-05-09T09:29:01.999Z,1.3
2024-05-09T09:30:02.044Z,0.82
2024-05-09T09:31:04.103Z,1.15
2024-05-09T09:32:02.910Z,0.38
2024-05-09T09:33:01.492Z,0.67
2024-05-09T09:34:01.771Z,1.34
2024-05-09T09:35:01.726Z,1.63
2024-05-09T09:36:03.387Z,1.15
2024-05-09T09:37:03.609Z,2.45
2024-05-09T09:38:02.038Z,1.78
2024-05-09T09:39:01.993Z,0.82
2024-05-09T09:40:02.187Z,1.25
2024-05-09T09:41:04.012Z,1.3
2024-05-09T09:42:02.904Z,0.58
2024-05-09T09:43:03.149Z,2.02
2024-05-09T09:44:03.145Z,2.69
2024-05-09T09:45:05.502Z,0.72
2024-05-09T09:46:03.446Z,2.35
2024-05-09T09:47:01.840Z,1.39
2024-05-09T09:48:02.022Z,0.05
2024-05-09T09:49:03.704Z,0.05
2024-05-09T09:50:02.292Z,1.39
2024-05-09T09:51:02.250Z,1.06
2024-05-09T09:52:01.384Z,2.02
2024-05-09T09:53:01.472Z,1.92
2024-05-09T09:54:03.132Z,1.1
2024-05-09T09:55:03.411Z,0.14
2024-05-09T09:56:01.727Z,0.38
2024-05-09T09:57:01.807Z,0.05
2024-05-09T09:58:01.989Z,1.54
2024-05-09T09:59:02.045Z,0.53
2024-05-09T10:00:03.114Z,1.06
2024-05-09T10:01:02.430Z,0.77
2024-05-09T10:02:01.603Z,0.05
2024-05-09T10:03:03.242Z,1.73
2024-05-09T10:04:01.689Z,0.96
2024-05-09T10:05:03.491Z,0.72
2024-05-09T10:06:01.783Z,0
2024-05-09T10:07:01.905Z,0
2024-05-09T10:08:01.944Z,1.15
2024-05-09T10:09:03.708Z,1.54
2024-05-09T10:10:02.593Z,1.49
2024-05-09T10:11:04.200Z,1.2
2024-05-09T10:12:03.072Z,1.82
2024-05-09T10:13:03.204Z,1.97
2024-05-09T10:14:01.530Z,1.39
2024-05-09T10:15:03.291Z,0
2024-05-09T10:16:01.814Z,0
2024-05-09T10:17:03.485Z,0
2024-05-09T10:18:02.123Z,1.01
2024-05-09T10:19:02.231Z,1.1
2024-05-09T10:20:02.533Z,1.63
2024-05-09T10:21:02.272Z,1.39
2024-05-09T10:22:03.052Z,0.91
2024-05-09T10:23:03.103Z,1.82
2024-05-09T10:24:01.549Z,0.67
2024-05-09T10:25:04.698Z,0
2024-05-09T10:26:03.768Z,0
2024-05-09T10:27:03.477Z,0.1
2024-05-09T10:28:01.999Z,0.91
2024-05-09T10:29:03.736Z,0.72
2024-05-09T10:30:05.120Z,1.44
2024-05-09T10:31:02.353Z,1.25
2024-05-09T10:32:01.360Z,1.92
2024-05-09T10:33:03.269Z,0.86
2024-05-09T10:34:01.751Z,2.45
2024-05-09T10:35:01.929Z,1.58
2024-05-09T10:36:01.748Z,1.78
2024-05-09T10:37:04.196Z,1.68
2024-05-09T10:38:03.634Z,1.78
2024-05-09T10:39:02.096Z,1.2
2024-05-09T10:40:02.566Z,0.86
2024-05-09T10:41:01.310Z,0.05
2024-05-09T10:42:01.383Z,0.77
2024-05-09T10:43:05.758Z,0.14
2024-05-09T10:44:03.253Z,0.67
2024-05-09T10:45:03.323Z,1.06
2024-05-09T10:46:01.784Z,1.01
2024-05-09T10:47:03.566Z,0.91
2024-05-09T10:48:02.248Z,1.01
2024-05-09T10:49:07.163Z,0.38
2024-05-09T10:50:07.799Z,0.14
2024-05-09T10:51:02.935Z,1.06
2024-05-09T10:52:03.066Z,1.63
2024-05-09T10:53:03.093Z,1.34
2024-05-09T10:54:03.243Z,1.78
2024-05-09T10:55:05.627Z,0.82
2024-05-09T10:56:03.423Z,0.91
2024-05-09T10:57:03.516Z,1.63
2024-05-09T10:58:02.011Z,1.06
2024-05-09T10:59:03.729Z,0.77
2024-05-09T11:00:02.183Z,1.82
2024-05-09T11:01:04.337Z,1.25
2024-05-09T11:02:01.484Z,0.24
2024-05-09T11:03:03.215Z,0.24
2024-05-09T11:04:03.536Z,0.62
2024-05-09T11:05:01.824Z,0.91
2024-05-09T11:06:03.411Z,0.82
2024-05-09T11:07:05.127Z,1.25
2024-05-09T11:08:03.600Z,1.1
2024-05-09T11:09:03.748Z,0.72
2024-05-09T11:10:02.263Z,0.34
2024-05-09T11:11:01.288Z,0.72
2024-05-09T11:12:01.440Z,0
2024-05-09T11:13:01.550Z,0.72
2024-05-09T11:14:01.609Z,1.25
2024-05-09T11:15:03.378Z,1.25
2024-05-09T11:16:03.539Z,0.82
2024-05-09T11:17:02.026Z,0.1
2024-05-09T11:18:02.123Z,0.67
2024-05-09T11:19:02.369Z,1.44
2024-05-09T11:20:03.248Z,1.1
2024-05-09T11:21:02.993Z,1.34
2024-05-09T11:22:03.098Z,1.73
2024-05-09T11:23:01.542Z,1.25
2024-05-09T11:24:01.640Z,1.1
2024-05-09T11:25:03.425Z,0
2024-05-09T11:26:03.522Z,0.29
2024-05-09T11:27:03.610Z,0.24
2024-05-09T11:28:02.168Z,0.19
2024-05-09T11:29:03.774Z,0
2024-05-09T11:30:04.490Z,0
2024-05-09T11:31:03.089Z,0
2024-05-09T11:32:03.082Z,0
2024-05-09T11:33:01.685Z,0
2024-05-09T11:34:01.653Z,0
2024-05-09T11:35:03.399Z,0
2024-05-09T11:36:01.810Z,0.38
2024-05-09T11:37:03.669Z,0.43
2024-05-09T11:38:02.090Z,1.25
2024-05-09T11:39:02.146Z,2.45
2024-05-09T11:40:03.337Z,2.11
2024-05-09T11:41:01.372Z,2.16
2024-05-09T11:42:01.453Z,1.2
2024-05-09T11:43:01.784Z,1.1
2024-05-09T11:44:03.286Z,1.54
2024-05-09T11:45:01.724Z,1.54
2024-05-09T11:46:04.181Z,2.26
2024-05-09T11:47:01.956Z,1.34
2024-05-09T11:48:02.361Z,0.75
2024-05-09T11:49:02.381Z,1.68
2024-05-09T11:50:04.360Z,1.92
2024-05-09T11:51:01.411Z,1.88
2024-05-09T11:52:01.524Z,1.56
2024-05-09T11:53:01.573Z,0.8
2024-05-09T11:54:03.340Z,0.28
2024-05-09T11:55:03.479Z,1.04
2024-05-09T11:56:01.869Z,0.88
2024-05-09T11:57:01.967Z,1.52
2024-05-09T11:58:03.734Z,1.92
2024-05-09T11:59:02.241Z,0.96
2024-05-09T12:00:04.165Z,1.44
2024-05-09T12:01:01.500Z,1.48
2024-05-09T12:02:01.565Z,1.36
2024-05-09T12:03:01.628Z,0.96
2024-05-09T12:04:01.990Z,1.32
2024-05-09T12:05:01.911Z,1.16
2024-05-09T12:06:02.116Z,0.96
2024-05-09T12:07:03.850Z,1.2
2024-05-09T12:08:03.708Z,1.72
2024-05-09T12:09:03.794Z,2.2
2024-05-09T12:10:04.684Z,1.48
2024-05-09T12:11:01.697Z,0.48
2024-05-09T12:12:03.179Z,0
2024-05-09T12:13:05.377Z,0
2024-05-09T12:14:03.298Z,0.48
2024-05-09T12:15:03.426Z,0.44
2024-05-09T12:16:02.008Z,0.76
2024-05-09T12:17:01.989Z,0.04
2024-05-09T12:18:03.907Z,1.64
2024-05-09T12:19:02.369Z,1.12
2024-05-09T12:20:04.311Z,0.16
2024-05-09T12:21:01.395Z,0.32
2024-05-09T12:22:03.142Z,0.04
2024-05-09T12:23:01.589Z,0.64
2024-05-09T12:24:03.325Z,1.04
2024-05-09T12:25:01.811Z,1.16
2024-05-09T12:26:03.518Z,1.32
2024-05-09T12:27:02.057Z,1.28
2024-05-09T12:28:03.734Z,0
2024-05-09T12:29:03.965Z,0.28
2024-05-09T12:30:04.612Z,0.24
2024-05-09T12:31:01.398Z,0
2024-05-09T12:32:03.106Z,0
2024-05-09T12:33:03.304Z,0.52
2024-05-09T12:34:01.694Z,0
2024-05-09T12:35:01.765Z,1.36
2024-05-09T12:36:03.514Z,1
2024-05-09T12:37:02.004Z,0.08
2024-05-09T12:38:03.839Z,1.32
2024-05-09T12:39:02.192Z,1.52
2024-05-09T12:40:01.322Z,2.08
2024-05-09T12:41:01.454Z,1.8
2024-05-09T12:42:03.182Z,2.16
2024-05-09T12:43:03.283Z,2.96
2024-05-09T12:44:01.717Z,1.36
2024-05-09T12:45:03.400Z,1.48
2024-05-09T12:46:02.088Z,0.48
2024-05-09T12:47:03.684Z,0.6
2024-05-09T12:48:03.942Z,1.64
2024-05-09T12:49:02.440Z,0.72
2024-05-09T12:50:04.958Z,0.88
2024-05-09T12:51:03.095Z,1
2024-05-09T12:52:03.369Z,1.84
2024-05-09T12:53:02.360Z,1.16
2024-05-09T12:54:01.790Z,0.8
2024-05-09T12:55:03.835Z,0.52
2024-05-09T12:56:04.880Z,0.8
2024-05-09T12:57:02.064Z,0
2024-05-09T12:58:02.266Z,0
2024-05-09T12:59:02.915Z,0.12
2024-05-09T13:00:01.391Z,0.92
2024-05-09T13:01:03.236Z,0.6
2024-05-09T13:02:01.858Z,0.24
2024-05-09T13:03:02.011Z,0.72
2024-05-09T13:04:02.133Z,1.24
2024-05-09T13:05:02.183Z,0.92
2024-05-09T13:06:01.981Z,0.16
2024-05-09T13:07:06.384Z,1.36
2024-05-09T13:08:02.161Z,1.04
2024-05-09T13:09:02.926Z,0
2024-05-09T13:10:01.489Z,0.36
2024-05-09T13:11:03.130Z,0.04
2024-05-09T13:12:03.272Z,0.76
2024-05-09T13:13:03.478Z,0.44
2024-05-09T13:14:01.832Z,0.6
2024-05-09T13:15:03.565Z,0.08
2024-05-09T13:16:03.728Z,0.92
2024-05-09T13:17:02.156Z,0.76
2024-05-09T13:18:03.589Z,1.64
2024-05-09T13:19:02.985Z,1.28
2024-05-09T13:20:01.440Z,1.64
2024-05-09T13:21:03.200Z,1.28
2024-05-09T13:22:03.444Z,0.52
2024-05-09T13:23:03.420Z,0.68
2024-05-09T13:24:01.843Z,0.6
2024-05-09T13:25:03.691Z,1.2
2024-05-09T13:26:02.038Z,1
2024-05-09T13:27:02.164Z,1.2
2024-05-09T13:28:02.457Z,1.12
2024-05-09T13:29:01.345Z,1.12
2024-05-09T13:30:01.482Z,0.44
2024-05-09T13:31:01.576Z,0.2
2024-05-09T13:32:01.726Z,1.68
2024-05-09T13:33:01.857Z,1.68
2024-05-09T13:34:02.114Z,1.92
2024-05-09T13:35:01.965Z,1.28
2024-05-09T13:36:03.647Z,0.24
2024-05-09T13:37:03.862Z,1.16
2024-05-09T13:38:03.010Z,1.52
2024-05-09T13:39:03.031Z,0.36
2024-05-09T13:40:05.463Z,0.2
2024-05-09T13:41:01.610Z,1.32
2024-05-09T13:42:01.690Z,0.32
2024-05-09T13:43:02.060Z,0.72
2024-05-09T13:44:01.912Z,0.72
2024-05-09T13:45:03.640Z,0.2
2024-05-09T13:46:03.966Z,0
2024-05-09T13:47:02.249Z,0
2024-05-09T13:48:03.101Z,0
2024-05-09T13:49:03.196Z,0.84
2024-05-09T13:50:01.550Z,2.36
2024-05-09T13:51:01.643Z,0.92
2024-05-09T13:52:03.526Z,1.68
2024-05-09T13:53:02.097Z,1.76
2024-05-09T13:54:01.939Z,1.08
2024-05-09T13:55:03.749Z,1.16
2024-05-09T13:56:02.116Z,0.12
2024-05-09T13:57:03.853Z,1.28
2024-05-09T13:58:01.427Z,1.84
2024-05-09T13:59:03.072Z,1.24
2024-05-09T14:00:01.593Z,2.24
2024-05-09T14:01:01.801Z,1.6
2024-05-09T14:02:03.421Z,1.6
2024-05-09T14:03:03.656Z,0.76
2024-05-09T14:04:02.088Z,0
2024-05-09T14:05:02.235Z,1.52
2024-05-09T14:06:02.267Z,2.72
2024-05-09T14:07:02.292Z,1.28
2024-05-09T14:08:03.001Z,1.2
2024-05-09T14:09:01.458Z,1.2
2024-05-09T14:10:05.147Z,1
2024-05-09T14:11:03.417Z,1.6
2024-05-09T14:12:01.750Z,0.32
2024-05-09T14:13:02.085Z,1.88
2024-05-09T14:14:03.591Z,1.68
2024-05-09T14:15:02.028Z,0.92
2024-05-09T14:16:03.847Z,0.76
2024-05-09T14:17:03.937Z,2.36
2024-05-09T14:18:03.019Z,1.2
2024-05-09T14:19:01.565Z,1.48